sensor_id;sensor_type;location;lat;lon;timestamp;P1;durP1;ratioP1;P2;durP2;ratioP2
67640;SDS011;54434;50.096;20.082;2023-03-21T00:01:23;75.60;;;42.10;;
67640;SDS011;54434;50.096;20.082;2023-03-21T00:03:59;77.80;;;41.90;;
67640;SDS011;54434;50.096;20.082;2023-03-21T00:06:36;75.70;;;43.00;;
67640;SDS011;54434;50.096;20.082;2023-03-21T00:09:12;82.00;;;44.80;;
67640;SDS011;54434;50.096;20.082;2023-03-21T00:11:49;80.10;;;44.10;;
67640;SDS011;54434;50.096;20.082;2023-03-21T00:14:26;74.60;;;42.80;;
67640;SDS011;54434;50.096;20.082;2023-03-21T00:17:04;77.00;;;43.40;;
67640;SDS011;54434;50.096;20.082;2023-03-21T00:19:40;81.20;;;44.10;;
67640;SDS011;54434;50.096;20.082;2023-03-21T00:22:18;80.00;;;43.30;;
67640;SDS011;54434;50.096;20.082;2023-03-21T00:24:55;74.80;;;44.00;;
67640;SDS011;54434;50.096;20.082;2023-03-21T00:27:31;81.20;;;44.50;;
67640;SDS011;54434;50.096;20.082;2023-03-21T00:30:28;75.90;;;42.40;;
67640;SDS011;54434;50.096;20.082;2023-03-21T00:33:04;77.30;;;44.50;;
67640;SDS011;54434;50.096;20.082;2023-03-21T00:35:55;73.90;;;41.80;;
67640;SDS011;54434;50.096;20.082;2023-03-21T00:38:39;73.40;;;40.40;;
67640;SDS011;54434;50.096;20.082;2023-03-21T00:41:15;76.20;;;42.90;;
67640;SDS011;54434;50.096;20.082;2023-03-21T00:44:12;76.20;;;41.60;;
67640;SDS011;54434;50.096;20.082;2023-03-21T00:46:49;71.10;;;41.10;;
67640;SDS011;54434;50.096;20.082;2023-03-21T00:49:39;69.30;;;40.30;;
67640;SDS011;54434;50.096;20.082;2023-03-21T00:52:16;74.00;;;41.30;;
67640;SDS011;54434;50.096;20.082;2023-03-21T00:55:14;66.20;;;39.00;;
67640;SDS011;54434;50.096;20.082;2023-03-21T00:57:51;74.50;;;40.50;;
67640;SDS011;54434;50.096;20.082;2023-03-21T01:00:34;68.50;;;38.60;;
67640;SDS011;54434;50.096;20.082;2023-03-21T01:03:16;70.60;;;39.00;;
67640;SDS011;54434;50.096;20.082;2023-03-21T01:05:58;70.10;;;39.40;;
67640;SDS011;54434;50.096;20.082;2023-03-21T01:08:40;67.90;;;39.50;;
67640;SDS011;54434;50.096;20.082;2023-03-21T01:11:27;70.00;;;38.90;;
67640;SDS011;54434;50.096;20.082;2023-03-21T01:14:04;70.00;;;39.50;;
67640;SDS011;54434;50.096;20.082;2023-03-21T01:16:54;67.00;;;38.80;;
67640;SDS011;54434;50.096;20.082;2023-03-21T01:19:31;71.10;;;38.20;;
67640;SDS011;54434;50.096;20.082;2023-03-21T01:22:23;65.70;;;39.00;;
67640;SDS011;54434;50.096;20.082;2023-03-21T01:25:00;71.90;;;39.60;;
67640;SDS011;54434;50.096;20.082;2023-03-21T01:27:54;64.20;;;37.20;;
67640;SDS011;54434;50.096;20.082;2023-03-21T01:30:30;66.70;;;38.00;;
67640;SDS011;54434;50.096;20.082;2023-03-21T01:33:15;64.00;;;37.20;;
67640;SDS011;54434;50.096;20.082;2023-03-21T01:35:53;64.60;;;35.00;;
67640;SDS011;54434;50.096;20.082;2023-03-21T01:38:45;60.90;;;33.60;;
67640;SDS011;54434;50.096;20.082;2023-03-21T01:41:26;54.50;;;33.10;;
67640;SDS011;54434;50.096;20.082;2023-03-21T01:47:38;45.80;;;27.70;;
67640;SDS011;54434;50.096;20.082;2023-03-21T01:50:39;46.70;;;27.80;;
67640;SDS011;54434;50.096;20.082;2023-03-21T01:53:31;51.40;;;29.60;;
67640;SDS011;54434;50.096;20.082;2023-03-21T01:56:15;49.40;;;28.90;;
67640;SDS011;54434;50.096;20.082;2023-03-21T01:59:12;57.70;;;31.80;;
67640;SDS011;54434;50.096;20.082;2023-03-21T02:02:18;52.70;;;30.40;;
67640;SDS011;54434;50.096;20.082;2023-03-21T02:08:38;47.20;;;28.40;;
67640;SDS011;54434;50.096;20.082;2023-03-21T02:11:19;56.10;;;31.90;;
67640;SDS011;54434;50.096;20.082;2023-03-21T02:13:56;55.30;;;31.20;;
67640;SDS011;54434;50.096;20.082;2023-03-21T02:16:52;57.40;;;33.80;;
67640;SDS011;54434;50.096;20.082;2023-03-21T02:20:22;63.80;;;33.40;;
67640;SDS011;54434;50.096;20.082;2023-03-21T02:27:06;57.30;;;31.60;;
67640;SDS011;54434;50.096;20.082;2023-03-21T02:30:37;56.20;;;32.80;;
67640;SDS011;54434;50.096;20.082;2023-03-21T02:34:00;61.20;;;32.80;;
67640;SDS011;54434;50.096;20.082;2023-03-21T02:37:11;53.80;;;29.00;;
67640;SDS011;54434;50.096;20.082;2023-03-21T02:40:15;56.50;;;30.60;;
67640;SDS011;54434;50.096;20.082;2023-03-21T02:43:02;64.50;;;32.90;;
67640;SDS011;54434;50.096;20.082;2023-03-21T02:45:59;61.00;;;32.60;;
67640;SDS011;54434;50.096;20.082;2023-03-21T02:48:44;56.80;;;32.50;;
67640;SDS011;54434;50.096;20.082;2023-03-21T02:51:29;56.20;;;32.30;;
67640;SDS011;54434;50.096;20.082;2023-03-21T02:54:11;64.70;;;34.60;;
67640;SDS011;54434;50.096;20.082;2023-03-21T02:57:11;59.70;;;34.50;;
67640;SDS011;54434;50.096;20.082;2023-03-21T02:59:50;66.00;;;34.40;;
67640;SDS011;54434;50.096;20.082;2023-03-21T03:02:40;59.60;;;33.20;;
67640;SDS011;54434;50.096;20.082;2023-03-21T03:05:20;57.80;;;33.40;;
67640;SDS011;54434;50.096;20.082;2023-03-21T03:08:30;62.00;;;34.70;;
67640;SDS011;54434;50.096;20.082;2023-03-21T03:11:34;67.20;;;33.50;;
67640;SDS011;54434;50.096;20.082;2023-03-21T03:14:33;63.50;;;34.10;;
67640;SDS011;54434;50.096;20.082;2023-03-21T03:20:32;50.70;;;28.80;;
67640;SDS011;54434;50.096;20.082;2023-03-21T03:23:25;55.40;;;30.40;;
67640;SDS011;54434;50.096;20.082;2023-03-21T03:26:10;55.30;;;31.20;;
67640;SDS011;54434;50.096;20.082;2023-03-21T03:28:54;58.60;;;30.80;;
67640;SDS011;54434;50.096;20.082;2023-03-21T03:31:38;59.30;;;31.60;;
67640;SDS011;54434;50.096;20.082;2023-03-21T03:34:20;47.70;;;28.90;;
67640;SDS011;54434;50.096;20.082;2023-03-21T03:37:01;53.40;;;27.90;;
67640;SDS011;54434;50.096;20.082;2023-03-21T03:39:48;60.30;;;33.60;;
67640;SDS011;54434;50.096;20.082;2023-03-21T03:42:33;56.50;;;30.30;;
67640;SDS011;54434;50.096;20.082;2023-03-21T03:45:24;54.80;;;29.30;;
67640;SDS011;54434;50.096;20.082;2023-03-21T03:48:14;56.80;;;29.40;;
67640;SDS011;54434;50.096;20.082;2023-03-21T03:51:02;58.40;;;30.50;;
67640;SDS011;54434;50.096;20.082;2023-03-21T03:54:02;54.00;;;28.60;;
67640;SDS011;54434;50.096;20.082;2023-03-21T03:56:42;53.70;;;28.00;;
67640;SDS011;54434;50.096;20.082;2023-03-21T03:59:19;53.90;;;29.30;;
67640;SDS011;54434;50.096;20.082;2023-03-21T04:02:11;54.80;;;29.00;;
67640;SDS011;54434;50.096;20.082;2023-03-21T04:04:48;55.60;;;29.30;;
67640;SDS011;54434;50.096;20.082;2023-03-21T04:07:26;57.90;;;31.10;;
67640;SDS011;54434;50.096;20.082;2023-03-21T04:10:04;53.70;;;29.70;;
67640;SDS011;54434;50.096;20.082;2023-03-21T04:12:45;53.60;;;29.70;;
67640;SDS011;54434;50.096;20.082;2023-03-21T04:16:06;54.50;;;29.40;;
67640;SDS011;54434;50.096;20.082;2023-03-21T04:18:44;57.00;;;30.10;;
67640;SDS011;54434;50.096;20.082;2023-03-21T04:21:23;58.30;;;30.50;;
67640;SDS011;54434;50.096;20.082;2023-03-21T04:24:01;58.90;;;30.60;;
67640;SDS011;54434;50.096;20.082;2023-03-21T04:26:39;61.20;;;31.90;;
67640;SDS011;54434;50.096;20.082;2023-03-21T04:30:14;67.30;;;35.10;;
67640;SDS011;54434;50.096;20.082;2023-03-21T04:32:56;60.00;;;34.30;;
67640;SDS011;54434;50.096;20.082;2023-03-21T04:35:35;67.00;;;34.70;;
67640;SDS011;54434;50.096;20.082;2023-03-21T04:38:12;62.20;;;35.00;;
67640;SDS011;54434;50.096;20.082;2023-03-21T04:40:49;65.90;;;34.50;;
67640;SDS011;54434;50.096;20.082;2023-03-21T04:43:27;63.10;;;34.60;;
67640;SDS011;54434;50.096;20.082;2023-03-21T04:46:05;64.60;;;34.20;;
67640;SDS011;54434;50.096;20.082;2023-03-21T04:48:41;68.10;;;37.00;;
67640;SDS011;54434;50.096;20.082;2023-03-21T04:51:20;68.90;;;37.60;;
67640;SDS011;54434;50.096;20.082;2023-03-21T04:53:56;73.80;;;37.70;;
67640;SDS011;54434;50.096;20.082;2023-03-21T04:56:33;71.20;;;37.70;;
67640;SDS011;54434;50.096;20.082;2023-03-21T04:59:13;71.00;;;37.30;;
67640;SDS011;54434;50.096;20.082;2023-03-21T05:01:50;70.50;;;37.90;;
67640;SDS011;54434;50.096;20.082;2023-03-21T05:04:29;73.20;;;38.00;;
67640;SDS011;54434;50.096;20.082;2023-03-21T05:07:06;72.00;;;37.90;;
67640;SDS011;54434;50.096;20.082;2023-03-21T05:09:42;68.70;;;35.80;;
67640;SDS011;54434;50.096;20.082;2023-03-21T05:12:22;76.20;;;38.40;;
67640;SDS011;54434;50.096;20.082;2023-03-21T05:14:58;73.30;;;37.50;;
67640;SDS011;54434;50.096;20.082;2023-03-21T05:17:35;71.80;;;38.80;;
67640;SDS011;54434;50.096;20.082;2023-03-21T05:20:13;68.30;;;37.40;;
67640;SDS011;54434;50.096;20.082;2023-03-21T05:22:50;70.30;;;37.70;;
67640;SDS011;54434;50.096;20.082;2023-03-21T05:25:26;67.20;;;36.90;;
67640;SDS011;54434;50.096;20.082;2023-03-21T05:28:15;69.40;;;38.00;;
67640;SDS011;54434;50.096;20.082;2023-03-21T05:30:52;72.30;;;38.20;;
67640;SDS011;54434;50.096;20.082;2023-03-21T05:33:29;64.90;;;36.70;;
67640;SDS011;54434;50.096;20.082;2023-03-21T05:36:07;70.80;;;37.00;;
67640;SDS011;54434;50.096;20.082;2023-03-21T05:38:44;72.50;;;37.00;;
67640;SDS011;54434;50.096;20.082;2023-03-21T05:41:20;68.60;;;35.70;;
67640;SDS011;54434;50.096;20.082;2023-03-21T05:43:57;64.90;;;34.40;;
67640;SDS011;54434;50.096;20.082;2023-03-21T05:46:34;68.60;;;34.30;;
67640;SDS011;54434;50.096;20.082;2023-03-21T05:49:11;65.60;;;33.30;;
67640;SDS011;54434;50.096;20.082;2023-03-21T05:51:48;61.60;;;33.00;;
67640;SDS011;54434;50.096;20.082;2023-03-21T05:54:24;65.90;;;33.00;;
67640;SDS011;54434;50.096;20.082;2023-03-21T05:57:01;65.10;;;33.90;;
67640;SDS011;54434;50.096;20.082;2023-03-21T06:00:28;61.10;;;31.30;;
67640;SDS011;54434;50.096;20.082;2023-03-21T06:03:20;64.30;;;30.60;;
67640;SDS011;54434;50.096;20.082;2023-03-21T06:06:33;58.20;;;28.70;;
67640;SDS011;54434;50.096;20.082;2023-03-21T06:09:09;58.40;;;29.30;;
67640;SDS011;54434;50.096;20.082;2023-03-21T06:11:50;58.90;;;29.60;;
67640;SDS011;54434;50.096;20.082;2023-03-21T06:14:35;53.50;;;27.90;;
67640;SDS011;54434;50.096;20.082;2023-03-21T06:17:22;57.30;;;28.20;;
67640;SDS011;54434;50.096;20.082;2023-03-21T06:20:02;61.50;;;28.50;;
67640;SDS011;54434;50.096;20.082;2023-03-21T06:22:47;59.90;;;29.70;;
67640;SDS011;54434;50.096;20.082;2023-03-21T06:25:24;58.40;;;28.70;;
67640;SDS011;54434;50.096;20.082;2023-03-21T06:28:00;51.60;;;28.00;;
67640;SDS011;54434;50.096;20.082;2023-03-21T06:30:38;58.00;;;27.80;;
67640;SDS011;54434;50.096;20.082;2023-03-21T06:33:24;53.30;;;27.50;;
67640;SDS011;54434;50.096;20.082;2023-03-21T06:36:01;54.40;;;27.00;;
67640;SDS011;54434;50.096;20.082;2023-03-21T06:38:38;60.50;;;28.50;;
67640;SDS011;54434;50.096;20.082;2023-03-21T06:41:16;57.70;;;28.40;;
67640;SDS011;54434;50.096;20.082;2023-03-21T06:44:02;58.70;;;28.70;;
67640;SDS011;54434;50.096;20.082;2023-03-21T06:46:44;56.70;;;27.10;;
67640;SDS011;54434;50.096;20.082;2023-03-21T06:49:22;53.60;;;26.00;;
67640;SDS011;54434;50.096;20.082;2023-03-21T06:52:00;53.10;;;25.20;;
67640;SDS011;54434;50.096;20.082;2023-03-21T06:54:37;50.80;;;25.10;;
67640;SDS011;54434;50.096;20.082;2023-03-21T06:57:17;47.60;;;25.10;;
67640;SDS011;54434;50.096;20.082;2023-03-21T06:59:54;48.40;;;25.00;;
67640;SDS011;54434;50.096;20.082;2023-03-21T07:02:30;41.20;;;22.10;;
67640;SDS011;54434;50.096;20.082;2023-03-21T07:05:30;45.50;;;22.60;;
67640;SDS011;54434;50.096;20.082;2023-03-21T07:08:09;48.00;;;22.70;;
67640;SDS011;54434;50.096;20.082;2023-03-21T07:10:46;52.20;;;22.80;;
67640;SDS011;54434;50.096;20.082;2023-03-21T07:13:23;51.40;;;22.30;;
67640;SDS011;54434;50.096;20.082;2023-03-21T07:16:09;45.30;;;21.20;;
67640;SDS011;54434;50.096;20.082;2023-03-21T07:18:45;41.00;;;20.10;;
67640;SDS011;54434;50.096;20.082;2023-03-21T07:21:22;37.70;;;19.30;;
67640;SDS011;54434;50.096;20.082;2023-03-21T07:23:58;34.70;;;19.00;;
67640;SDS011;54434;50.096;20.082;2023-03-21T07:26:34;36.60;;;16.90;;
67640;SDS011;54434;50.096;20.082;2023-03-21T07:29:11;35.00;;;17.60;;
67640;SDS011;54434;50.096;20.082;2023-03-21T07:31:49;30.00;;;15.60;;
67640;SDS011;54434;50.096;20.082;2023-03-21T07:34:27;26.60;;;15.10;;
67640;SDS011;54434;50.096;20.082;2023-03-21T07:37:08;25.70;;;14.20;;
67640;SDS011;54434;50.096;20.082;2023-03-21T07:39:45;27.10;;;13.20;;
67640;SDS011;54434;50.096;20.082;2023-03-21T07:42:21;28.20;;;13.70;;
67640;SDS011;54434;50.096;20.082;2023-03-21T07:45:05;23.70;;;12.60;;
67640;SDS011;54434;50.096;20.082;2023-03-21T07:47:43;23.20;;;13.10;;
67640;SDS011;54434;50.096;20.082;2023-03-21T07:50:20;23.50;;;13.00;;
67640;SDS011;54434;50.096;20.082;2023-03-21T07:52:56;22.60;;;12.20;;
67640;SDS011;54434;50.096;20.082;2023-03-21T07:55:33;22.70;;;12.30;;
67640;SDS011;54434;50.096;20.082;2023-03-21T07:58:10;21.10;;;12.10;;
67640;SDS011;54434;50.096;20.082;2023-03-21T08:00:46;20.60;;;12.90;;
67640;SDS011;54434;50.096;20.082;2023-03-21T08:03:23;23.50;;;13.90;;
67640;SDS011;54434;50.096;20.082;2023-03-21T08:06:02;21.80;;;12.70;;
67640;SDS011;54434;50.096;20.082;2023-03-21T08:08:39;20.00;;;11.50;;
67640;SDS011;54434;50.096;20.082;2023-03-21T08:11:15;22.60;;;12.30;;
67640;SDS011;54434;50.096;20.082;2023-03-21T08:13:53;20.00;;;12.10;;
67640;SDS011;54434;50.096;20.082;2023-03-21T08:16:30;22.50;;;12.20;;
67640;SDS011;54434;50.096;20.082;2023-03-21T08:19:06;21.80;;;12.50;;
67640;SDS011;54434;50.096;20.082;2023-03-21T08:21:42;23.30;;;13.60;;
67640;SDS011;54434;50.096;20.082;2023-03-21T08:24:19;22.20;;;13.30;;
67640;SDS011;54434;50.096;20.082;2023-03-21T08:26:55;25.40;;;13.80;;
67640;SDS011;54434;50.096;20.082;2023-03-21T08:29:31;24.20;;;14.00;;
67640;SDS011;54434;50.096;20.082;2023-03-21T08:32:12;22.90;;;13.70;;
67640;SDS011;54434;50.096;20.082;2023-03-21T08:34:51;25.40;;;13.80;;
67640;SDS011;54434;50.096;20.082;2023-03-21T08:37:29;23.50;;;14.10;;
67640;SDS011;54434;50.096;20.082;2023-03-21T08:40:10;25.40;;;13.80;;
67640;SDS011;54434;50.096;20.082;2023-03-21T08:42:48;24.90;;;14.90;;
67640;SDS011;54434;50.096;20.082;2023-03-21T08:45:24;23.60;;;14.10;;
67640;SDS011;54434;50.096;20.082;2023-03-21T08:48:01;27.30;;;14.90;;
67640;SDS011;54434;50.096;20.082;2023-03-21T08:50:38;27.80;;;14.00;;
67640;SDS011;54434;50.096;20.082;2023-03-21T08:53:15;20.10;;;11.60;;
67640;SDS011;54434;50.096;20.082;2023-03-21T08:55:52;21.10;;;12.20;;
67640;SDS011;54434;50.096;20.082;2023-03-21T08:58:29;19.00;;;11.30;;
67640;SDS011;54434;50.096;20.082;2023-03-21T09:01:06;20.50;;;10.60;;
67640;SDS011;54434;50.096;20.082;2023-03-21T09:03:43;22.50;;;10.30;;
67640;SDS011;54434;50.096;20.082;2023-03-21T09:06:20;19.60;;;10.90;;
67640;SDS011;54434;50.096;20.082;2023-03-21T09:08:57;18.90;;;11.40;;
67640;SDS011;54434;50.096;20.082;2023-03-21T09:11:34;22.60;;;12.10;;
67640;SDS011;54434;50.096;20.082;2023-03-21T09:14:11;22.70;;;13.50;;
67640;SDS011;54434;50.096;20.082;2023-03-21T09:16:48;26.60;;;14.20;;
67640;SDS011;54434;50.096;20.082;2023-03-21T09:19:24;25.80;;;14.70;;
67640;SDS011;54434;50.096;20.082;2023-03-21T09:22:02;26.30;;;15.10;;
67640;SDS011;54434;50.096;20.082;2023-03-21T09:24:44;27.00;;;15.90;;
67640;SDS011;54434;50.096;20.082;2023-03-21T09:27:21;30.60;;;16.40;;
67640;SDS011;54434;50.096;20.082;2023-03-21T09:30:00;27.10;;;16.40;;
67640;SDS011;54434;50.096;20.082;2023-03-21T09:32:38;34.80;;;20.50;;
67640;SDS011;54434;50.096;20.082;2023-03-21T09:35:15;38.00;;;20.10;;
67640;SDS011;54434;50.096;20.082;2023-03-21T09:37:53;29.90;;;16.20;;
67640;SDS011;54434;50.096;20.082;2023-03-21T09:40:53;30.40;;;17.40;;
67640;SDS011;54434;50.096;20.082;2023-03-21T09:43:48;30.00;;;16.60;;
67640;SDS011;54434;50.096;20.082;2023-03-21T09:46:44;34.20;;;16.90;;
67640;SDS011;54434;50.096;20.082;2023-03-21T09:49:27;32.70;;;17.40;;
67640;SDS011;54434;50.096;20.082;2023-03-21T09:52:14;29.10;;;17.20;;
67640;SDS011;54434;50.096;20.082;2023-03-21T09:54:56;28.00;;;17.20;;
67640;SDS011;54434;50.096;20.082;2023-03-21T09:57:38;32.00;;;17.50;;
67640;SDS011;54434;50.096;20.082;2023-03-21T10:00:24;30.40;;;18.20;;
67640;SDS011;54434;50.096;20.082;2023-03-21T10:03:15;29.50;;;16.50;;
67640;SDS011;54434;50.096;20.082;2023-03-21T10:05:57;29.00;;;16.50;;
67640;SDS011;54434;50.096;20.082;2023-03-21T10:08:40;26.70;;;15.00;;
67640;SDS011;54434;50.096;20.082;2023-03-21T10:11:23;22.80;;;14.10;;
67640;SDS011;54434;50.096;20.082;2023-03-21T10:14:05;27.30;;;14.40;;
67640;SDS011;54434;50.096;20.082;2023-03-21T10:16:50;26.80;;;15.30;;
67640;SDS011;54434;50.096;20.082;2023-03-21T10:19:30;23.00;;;14.30;;
67640;SDS011;54434;50.096;20.082;2023-03-21T10:22:08;38.70;;;20.80;;
67640;SDS011;54434;50.096;20.082;2023-03-21T10:24:45;25.00;;;15.20;;
67640;SDS011;54434;50.096;20.082;2023-03-21T10:27:23;25.10;;;14.70;;
67640;SDS011;54434;50.096;20.082;2023-03-21T10:29:59;25.10;;;14.40;;
67640;SDS011;54434;50.096;20.082;2023-03-21T10:32:38;24.20;;;14.70;;
67640;SDS011;54434;50.096;20.082;2023-03-21T10:35:16;23.10;;;13.90;;
67640;SDS011;54434;50.096;20.082;2023-03-21T10:37:53;21.00;;;13.70;;
67640;SDS011;54434;50.096;20.082;2023-03-21T10:40:30;23.30;;;13.90;;
67640;SDS011;54434;50.096;20.082;2023-03-21T10:43:35;22.70;;;13.60;;
67640;SDS011;54434;50.096;20.082;2023-03-21T10:46:18;22.80;;;13.40;;
67640;SDS011;54434;50.096;20.082;2023-03-21T10:48:56;25.10;;;13.90;;
67640;SDS011;54434;50.096;20.082;2023-03-21T10:51:37;21.80;;;12.60;;
67640;SDS011;54434;50.096;20.082;2023-03-21T10:56:59;21.20;;;12.80;;
67640;SDS011;54434;50.096;20.082;2023-03-21T10:59:44;31.10;;;16.50;;
67640;SDS011;54434;50.096;20.082;2023-03-21T11:02:31;22.80;;;13.40;;
67640;SDS011;54434;50.096;20.082;2023-03-21T11:05:21;23.30;;;12.80;;
67640;SDS011;54434;50.096;20.082;2023-03-21T11:08:04;22.60;;;13.00;;
67640;SDS011;54434;50.096;20.082;2023-03-21T11:10:58;22.80;;;12.10;;
67640;SDS011;54434;50.096;20.082;2023-03-21T11:13:41;23.10;;;12.70;;
67640;SDS011;54434;50.096;20.082;2023-03-21T11:19:18;20.50;;;12.00;;
67640;SDS011;54434;50.096;20.082;2023-03-21T11:22:06;21.40;;;12.20;;
67640;SDS011;54434;50.096;20.082;2023-03-21T11:24:50;21.90;;;12.50;;
67640;SDS011;54434;50.096;20.082;2023-03-21T11:27:32;21.40;;;13.20;;
67640;SDS011;54434;50.096;20.082;2023-03-21T11:30:22;23.50;;;12.60;;
67640;SDS011;54434;50.096;20.082;2023-03-21T11:33:02;23.70;;;13.70;;
67640;SDS011;54434;50.096;20.082;2023-03-21T11:35:40;23.70;;;13.00;;
67640;SDS011;54434;50.096;20.082;2023-03-21T11:38:30;24.40;;;13.60;;
67640;SDS011;54434;50.096;20.082;2023-03-21T11:41:22;26.40;;;13.60;;
67640;SDS011;54434;50.096;20.082;2023-03-21T11:44:03;25.50;;;13.70;;
67640;SDS011;54434;50.096;20.082;2023-03-21T11:46:43;53.00;;;27.00;;
67640;SDS011;54434;50.096;20.082;2023-03-21T11:49:20;28.40;;;16.50;;
67640;SDS011;54434;50.096;20.082;2023-03-21T11:52:21;25.20;;;14.10;;
67640;SDS011;54434;50.096;20.082;2023-03-21T11:55:33;28.60;;;15.70;;
67640;SDS011;54434;50.096;20.082;2023-03-21T11:58:29;25.70;;;15.50;;
67640;SDS011;54434;50.096;20.082;2023-03-21T12:01:20;26.80;;;15.90;;
67640;SDS011;54434;50.096;20.082;2023-03-21T12:04:17;28.80;;;16.50;;
67640;SDS011;54434;50.096;20.082;2023-03-21T12:07:07;29.20;;;17.40;;
67640;SDS011;54434;50.096;20.082;2023-03-21T12:09:56;31.00;;;17.80;;
67640;SDS011;54434;50.096;20.082;2023-03-21T12:12:52;30.60;;;17.30;;
67640;SDS011;54434;50.096;20.082;2023-03-21T12:15:40;26.80;;;16.40;;
67640;SDS011;54434;50.096;20.082;2023-03-21T12:18:50;33.40;;;18.20;;
67640;SDS011;54434;50.096;20.082;2023-03-21T12:21:42;33.40;;;18.90;;
67640;SDS011;54434;50.096;20.082;2023-03-21T12:24:32;29.90;;;18.00;;
67640;SDS011;54434;50.096;20.082;2023-03-21T12:27:21;32.30;;;18.70;;
67640;SDS011;54434;50.096;20.082;2023-03-21T12:30:46;38.50;;;21.10;;
67640;SDS011;54434;50.096;20.082;2023-03-21T12:34:05;41.80;;;21.90;;
67640;SDS011;54434;50.096;20.082;2023-03-21T12:37:06;42.20;;;22.10;;
67640;SDS011;54434;50.096;20.082;2023-03-21T12:39:50;35.10;;;19.90;;
67640;SDS011;54434;50.096;20.082;2023-03-21T12:42:58;37.10;;;19.70;;
67640;SDS011;54434;50.096;20.082;2023-03-21T12:45:50;37.50;;;21.30;;
67640;SDS011;54434;50.096;20.082;2023-03-21T12:48:40;40.20;;;19.70;;
67640;SDS011;54434;50.096;20.082;2023-03-21T12:54:16;33.60;;;18.40;;
67640;SDS011;54434;50.096;20.082;2023-03-21T12:57:03;33.40;;;18.70;;
67640;SDS011;54434;50.096;20.082;2023-03-21T12:59:51;36.70;;;19.70;;
67640;SDS011;54434;50.096;20.082;2023-03-21T13:02:37;36.10;;;19.00;;
67640;SDS011;54434;50.096;20.082;2023-03-21T13:05:24;33.10;;;18.30;;
67640;SDS011;54434;50.096;20.082;2023-03-21T13:08:10;37.10;;;18.80;;
67640;SDS011;54434;50.096;20.082;2023-03-21T13:10:51;37.30;;;19.60;;
67640;SDS011;54434;50.096;20.082;2023-03-21T13:13:34;32.60;;;17.60;;
67640;SDS011;54434;50.096;20.082;2023-03-21T13:16:16;35.00;;;20.10;;
67640;SDS011;54434;50.096;20.082;2023-03-21T13:19:10;31.70;;;17.20;;
67640;SDS011;54434;50.096;20.082;2023-03-21T13:21:58;35.20;;;18.80;;
67640;SDS011;54434;50.096;20.082;2023-03-21T13:24:45;29.80;;;16.80;;
67640;SDS011;54434;50.096;20.082;2023-03-21T13:27:29;29.10;;;16.10;;
67640;SDS011;54434;50.096;20.082;2023-03-21T13:30:20;24.70;;;13.90;;
67640;SDS011;54434;50.096;20.082;2023-03-21T13:33:10;29.10;;;14.90;;
67640;SDS011;54434;50.096;20.082;2023-03-21T13:35:59;22.00;;;14.30;;
67640;SDS011;54434;50.096;20.082;2023-03-21T13:38:43;24.20;;;13.60;;
67640;SDS011;54434;50.096;20.082;2023-03-21T13:41:31;26.30;;;13.90;;
67640;SDS011;54434;50.096;20.082;2023-03-21T13:44:22;24.50;;;13.50;;
67640;SDS011;54434;50.096;20.082;2023-03-21T13:47:20;22.20;;;13.10;;
67640;SDS011;54434;50.096;20.082;2023-03-21T13:50:35;27.70;;;15.10;;
67640;SDS011;54434;50.096;20.082;2023-03-21T13:53:36;22.90;;;13.90;;
67640;SDS011;54434;50.096;20.082;2023-03-21T13:59:03;21.90;;;12.60;;
67640;SDS011;54434;50.096;20.082;2023-03-21T14:02:02;21.90;;;13.40;;
67640;SDS011;54434;50.096;20.082;2023-03-21T14:04:59;21.70;;;13.80;;
67640;SDS011;54434;50.096;20.082;2023-03-21T14:07:43;22.70;;;13.60;;
67640;SDS011;54434;50.096;20.082;2023-03-21T14:10:28;22.50;;;13.00;;
67640;SDS011;54434;50.096;20.082;2023-03-21T14:13:12;19.80;;;12.60;;
67640;SDS011;54434;50.096;20.082;2023-03-21T14:15:54;20.40;;;12.50;;
67640;SDS011;54434;50.096;20.082;2023-03-21T14:18:45;18.50;;;11.40;;
67640;SDS011;54434;50.096;20.082;2023-03-21T14:21:30;18.90;;;11.80;;
67640;SDS011;54434;50.096;20.082;2023-03-21T14:24:12;18.60;;;11.50;;
67640;SDS011;54434;50.096;20.082;2023-03-21T14:26:53;21.80;;;11.70;;
67640;SDS011;54434;50.096;20.082;2023-03-21T14:29:33;20.90;;;11.50;;
67640;SDS011;54434;50.096;20.082;2023-03-21T14:32:22;18.00;;;11.00;;
67640;SDS011;54434;50.096;20.082;2023-03-21T14:35:02;28.70;;;14.80;;
67640;SDS011;54434;50.096;20.082;2023-03-21T14:37:45;30.90;;;18.50;;
67640;SDS011;54434;50.096;20.082;2023-03-21T14:40:25;21.20;;;12.50;;
67640;SDS011;54434;50.096;20.082;2023-03-21T14:43:05;19.50;;;12.20;;
67640;SDS011;54434;50.096;20.082;2023-03-21T14:45:48;23.50;;;12.80;;
67640;SDS011;54434;50.096;20.082;2023-03-21T14:51:11;18.60;;;11.50;;
67640;SDS011;54434;50.096;20.082;2023-03-21T14:53:48;20.00;;;11.90;;
67640;SDS011;54434;50.096;20.082;2023-03-21T14:56:25;20.20;;;12.20;;
67640;SDS011;54434;50.096;20.082;2023-03-21T14:59:02;21.60;;;11.90;;
67640;SDS011;54434;50.096;20.082;2023-03-21T15:01:40;20.30;;;11.80;;
67640;SDS011;54434;50.096;20.082;2023-03-21T15:04:18;20.70;;;12.50;;
67640;SDS011;54434;50.096;20.082;2023-03-21T15:06:57;21.10;;;12.30;;
67640;SDS011;54434;50.096;20.082;2023-03-21T15:09:37;21.30;;;12.60;;
67640;SDS011;54434;50.096;20.082;2023-03-21T15:12:16;23.10;;;12.70;;
67640;SDS011;54434;50.096;20.082;2023-03-21T15:14:53;20.80;;;12.60;;
67640;SDS011;54434;50.096;20.082;2023-03-21T15:17:30;21.20;;;12.50;;
67640;SDS011;54434;50.096;20.082;2023-03-21T15:20:14;23.10;;;13.00;;
67640;SDS011;54434;50.096;20.082;2023-03-21T15:22:53;21.60;;;13.60;;
67640;SDS011;54434;50.096;20.082;2023-03-21T15:25:34;23.00;;;12.90;;
67640;SDS011;54434;50.096;20.082;2023-03-21T15:28:16;21.70;;;13.30;;
67640;SDS011;54434;50.096;20.082;2023-03-21T15:33:29;51.90;;;27.20;;
67640;SDS011;54434;50.096;20.082;2023-03-21T15:36:10;23.20;;;14.40;;
67640;SDS011;54434;50.096;20.082;2023-03-21T15:38:52;24.10;;;13.90;;
67640;SDS011;54434;50.096;20.082;2023-03-21T15:41:31;27.50;;;13.70;;
67640;SDS011;54434;50.096;20.082;2023-03-21T15:44:15;25.10;;;14.30;;
67640;SDS011;54434;50.096;20.082;2023-03-21T15:46:56;24.50;;;13.60;;
67640;SDS011;54434;50.096;20.082;2023-03-21T15:49:36;26.10;;;14.60;;
67640;SDS011;54434;50.096;20.082;2023-03-21T15:54:52;25.50;;;14.10;;
67640;SDS011;54434;50.096;20.082;2023-03-21T15:57:33;24.90;;;14.10;;
67640;SDS011;54434;50.096;20.082;2023-03-21T16:00:22;28.00;;;16.20;;
67640;SDS011;54434;50.096;20.082;2023-03-21T16:03:08;29.50;;;16.10;;
67640;SDS011;54434;50.096;20.082;2023-03-21T16:08:52;30.00;;;16.50;;
67640;SDS011;54434;50.096;20.082;2023-03-21T16:11:47;28.20;;;15.90;;
67640;SDS011;54434;50.096;20.082;2023-03-21T16:14:25;24.90;;;15.40;;
67640;SDS011;54434;50.096;20.082;2023-03-21T16:17:11;27.80;;;16.30;;
67640;SDS011;54434;50.096;20.082;2023-03-21T16:19:56;26.40;;;15.70;;
67640;SDS011;54434;50.096;20.082;2023-03-21T16:22:32;28.90;;;16.70;;